Time;durP1;ratioP1;P1;durP2;ratioP2;P2;SDS_P1;SDS_P2;PMS_P1;PMS_P2;Temp;Humidity;BMP_temperature;BMP_pressure;BME280_temperature;BME280_humidity;BME280_pressure;Samples;Min_cycle;Max_cycle;Signal;HPM_P1;HPM_P2
2021/06/13 00:01:19;;;;;;;5.15;4.50;;;;;;;;;;5070177;28;20167;-56
2021/06/13 00:03:46;;;;;;;4.60;4.17;;;;;;;;;;5066166;28;20211;-56
2021/06/13 00:06:11;;;;;;;5.37;4.87;;;;;;;;;;5072624;28;20177;-56
2021/06/13 00:08:36;;;;;;;5.50;4.65;;;;;;;;;;5070144;28;20603;-57
2021/06/13 00:11:02;;;;;;;5.25;4.75;;;;;;;;;;5069897;28;20222;-56
2021/06/13 00:13:27;;;;;;;5.60;4.90;;;;;;;;;;5069222;28;20646;-56
2021/06/13 00:15:53;;;;;;;4.80;4.40;;;;;;;;;;5069903;28;20554;-56
2021/06/13 00:18:19;;;;;;;5.80;5.30;;;;;;;;;;5066722;28;20173;-57
2021/06/13 00:20:45;;;;;;;6.70;5.30;;;;;;;;;;5067100;28;20242;-56
2021/06/13 00:23:10;;;;;;;4.77;4.40;;;;;;;;;;5069317;28;20603;-56
2021/06/13 00:25:35;;;;;;;7.80;5.03;;;;;;;;;;5068476;28;20263;-57
2021/06/13 00:28:01;;;;;;;6.90;6.23;;;;;;;;;;5069137;28;20191;-56
2021/06/13 00:30:26;;;;;;;6.20;5.70;;;;;;;;;;5064360;28;20702;-56
2021/06/13 00:32:51;;;;;;;6.73;5.17;;;;;;;;;;5068705;28;20682;-56
2021/06/13 00:35:18;;;;;;;5.60;5.10;;;;;;;;;;5068946;28;20180;-55
2021/06/13 00:37:43;;;;;;;5.70;5.17;;;;;;;;;;5082025;28;20285;-56
2021/06/13 00:40:09;;;;;;;5.53;4.80;;;;;;;;;;5069172;28;20594;-56
2021/06/13 00:42:34;;;;;;;4.93;4.40;;;;;;;;;;5069016;28;20690;-56
2021/06/13 00:44:59;;;;;;;11.60;5.30;;;;;;;;;;5068727;28;20179;-55
2021/06/13 00:47:25;;;;;;;4.80;4.40;;;;;;;;;;5067100;28;20179;-55
2021/06/13 00:49:50;;;;;;;5.33;4.90;;;;;;;;;;5060894;28;20164;-55
2021/06/13 00:52:15;;;;;;;5.87;4.60;;;;;;;;;;5068975;28;20174;-56
2021/06/13 00:54:41;;;;;;;6.00;4.43;;;;;;;;;;5068223;28;20198;-56
2021/06/13 00:57:06;;;;;;;5.63;4.30;;;;;;;;;;5068995;28;20271;-55
2021/06/13 00:59:31;;;;;;;5.10;4.60;;;;;;;;;;5068963;28;20538;-55
2021/06/13 01:01:56;;;;;;;5.27;4.80;;;;;;;;;;5056713;28;20193;-56
2021/06/13 01:04:22;;;;;;;4.83;4.43;;;;;;;;;;5058303;28;20201;-55
2021/06/13 01:07:13;;;;;;;4.90;4.40;;;;;;;;;;5068577;28;20257;-56
2021/06/13 01:09:44;;;;;;;6.40;5.07;;;;;;;;;;5065299;28;21030;-56
2021/06/13 01:12:15;;;;;;;6.77;4.53;;;;;;;;;;5068182;28;20645;-56
2021/06/13 01:14:59;;;;;;;5.40;4.67;;;;;;;;;;5067655;28;20783;-56
2021/06/13 01:17:24;;;;;;;5.03;4.40;;;;;;;;;;5063243;28;21079;-56
2021/06/13 01:19:52;;;;;;;6.65;4.80;;;;;;;;;;5066689;28;21080;-56
2021/06/13 01:22:26;;;;;;;5.40;4.90;;;;;;;;;;5067442;28;20186;-56
2021/06/13 01:25:10;;;;;;;5.70;4.80;;;;;;;;;;5063668;28;20610;-56
2021/06/13 01:27:54;;;;;;;7.03;5.40;;;;;;;;;;5068121;28;20625;-56
2021/06/13 01:30:19;;;;;;;6.00;5.30;;;;;;;;;;5060989;28;20648;-56
2021/06/13 01:32:44;;;;;;;6.23;4.87;;;;;;;;;;5066943;28;20653;-55
2021/06/13 01:35:12;;;;;;;6.23;5.23;;;;;;;;;;5067526;28;20184;-55
2021/06/13 01:37:38;;;;;;;5.77;5.23;;;;;;;;;;5067754;28;20176;-55
2021/06/13 01:40:07;;;;;;;6.47;5.03;;;;;;;;;;5083534;28;21110;-56
2021/06/13 01:42:32;;;;;;;8.70;5.20;;;;;;;;;;5067098;28;20740;-56
2021/06/13 01:44:59;;;;;;;9.13;5.30;;;;;;;;;;5067920;28;20699;-56
2021/06/13 01:47:24;;;;;;;8.40;4.63;;;;;;;;;;5065271;28;21166;-55
2021/06/13 01:49:50;;;;;;;5.83;5.37;;;;;;;;;;5065359;28;20627;-56
2021/06/13 01:52:15;;;;;;;6.83;5.50;;;;;;;;;;5067128;28;20320;-56
2021/06/13 01:54:41;;;;;;;7.33;5.43;;;;;;;;;;5060108;28;20272;-55
2021/06/13 01:57:08;;;;;;;7.40;5.23;;;;;;;;;;5050750;28;20183;-56
2021/06/13 01:59:34;;;;;;;9.20;5.53;;;;;;;;;;5071284;28;20176;-56
2021/06/13 02:01:59;;;;;;;5.20;4.73;;;;;;;;;;5067795;28;20700;-55
2021/06/13 02:04:26;;;;;;;13.90;5.63;;;;;;;;;;5064578;28;20966;-55
2021/06/13 02:06:53;;;;;;;7.70;6.10;;;;;;;;;;5066453;28;20204;-56
2021/06/13 02:09:19;;;;;;;5.83;5.33;;;;;;;;;;5068563;28;20589;-56
2021/06/13 02:11:45;;;;;;;8.60;6.20;;;;;;;;;;5067248;28;20646;-56
2021/06/13 02:14:11;;;;;;;9.97;6.00;;;;;;;;;;5067184;28;20220;-57
2021/06/13 02:16:38;;;;;;;7.27;5.50;;;;;;;;;;5066528;28;20175;-56
2021/06/13 02:19:04;;;;;;;7.03;5.00;;;;;;;;;;5067354;28;20175;-56
2021/06/13 02:21:29;;;;;;;7.40;5.33;;;;;;;;;;5070284;28;20971;-56
2021/06/13 02:23:55;;;;;;;6.87;5.60;;;;;;;;;;5066098;28;20653;-56
2021/06/13 02:26:21;;;;;;;6.63;5.07;;;;;;;;;;5066154;28;20180;-56
2021/06/13 02:28:52;;;;;;;6.63;5.50;;;;;;;;;;5067239;28;20943;-55
2021/06/13 02:31:18;;;;;;;6.10;5.20;;;;;;;;;;5061874;28;20262;-55
2021/06/13 02:33:45;;;;;;;11.20;6.00;;;;;;;;;;5066872;28;20645;-55
2021/06/13 02:36:10;;;;;;;6.30;5.70;;;;;;;;;;5066855;28;20593;-56
2021/06/13 02:38:35;;;;;;;5.67;5.10;;;;;;;;;;5067012;28;20668;-56
2021/06/13 02:41:01;;;;;;;8.63;5.93;;;;;;;;;;5072093;28;20185;-56
2021/06/13 02:43:26;;;;;;;6.10;5.10;;;;;;;;;;5071610;28;20777;-56
2021/06/13 02:45:51;;;;;;;7.37;5.40;;;;;;;;;;5065736;28;20182;-56
2021/06/13 02:48:17;;;;;;;7.13;5.20;;;;;;;;;;5066881;28;20197;-56
2021/06/13 02:50:42;;;;;;;7.53;5.93;;;;;;;;;;5066777;28;20259;-56
2021/06/13 02:53:42;;;;;;;5.80;5.20;;;;;;;;;;5069096;28;20236;-55
2021/06/13 02:56:27;;;;;;;5.73;5.23;;;;;;;;;;5067069;28;20191;-56
2021/06/13 02:58:58;;;;;;;6.30;5.20;;;;;;;;;;5063689;28;20655;-57
2021/06/13 03:01:24;;;;;;;7.03;5.10;;;;;;;;;;5065752;28;21160;-55
2021/06/13 03:03:50;;;;;;;7.83;4.80;;;;;;;;;;5072482;28;20628;-56
2021/06/13 03:06:19;;;;;;;6.30;5.70;;;;;;;;;;5066949;28;20175;-55
2021/06/13 03:08:46;;;;;;;6.03;5.43;;;;;;;;;;5066478;28;20651;-56
2021/06/13 03:11:11;;;;;;;6.80;6.20;;;;;;;;;;5066014;28;21057;-55
2021/06/13 03:13:37;;;;;;;6.50;5.27;;;;;;;;;;5067360;28;20630;-55
2021/06/13 03:16:03;;;;;;;6.23;5.27;;;;;;;;;;5066551;28;20647;-55
2021/06/13 03:18:29;;;;;;;6.63;5.90;;;;;;;;;;5068478;28;20606;-56
2021/06/13 03:20:56;;;;;;;9.27;6.17;;;;;;;;;;5070754;28;20600;-56
2021/06/13 03:23:21;;;;;;;6.53;5.70;;;;;;;;;;5070190;28;20608;-56
2021/06/13 03:25:48;;;;;;;7.07;5.57;;;;;;;;;;5069277;28;20605;-56
2021/06/13 03:28:14;;;;;;;6.07;5.47;;;;;;;;;;5067238;28;20650;-56
2021/06/13 03:30:39;;;;;;;6.97;5.13;;;;;;;;;;5067316;28;20719;-56
2021/06/13 03:33:05;;;;;;;12.45;6.22;;;;;;;;;;5070928;28;21330;-56
2021/06/13 03:35:31;;;;;;;6.20;5.00;;;;;;;;;;5071178;28;20203;-56
2021/06/13 03:37:57;;;;;;;6.00;5.50;;;;;;;;;;5064748;28;21222;-56
2021/06/13 03:40:22;;;;;;;10.10;5.20;;;;;;;;;;5070413;28;20176;-56
2021/06/13 03:42:48;;;;;;;5.40;4.90;;;;;;;;;;5069319;28;20168;-56
2021/06/13 03:45:13;;;;;;;5.60;5.10;;;;;;;;;;5070669;28;20702;-55
2021/06/13 03:47:38;;;;;;;10.67;5.27;;;;;;;;;;5070208;28;20764;-55
2021/06/13 03:50:05;;;;;;;6.90;5.20;;;;;;;;;;5069611;28;20187;-56
2021/06/13 03:52:30;;;;;;;6.67;5.07;;;;;;;;;;5069419;28;20218;-55
2021/06/13 03:54:56;;;;;;;7.70;5.43;;;;;;;;;;5070374;28;21197;-56
2021/06/13 03:57:22;;;;;;;5.90;5.30;;;;;;;;;;5070108;28;20582;-55
2021/06/13 03:59:48;;;;;;;5.47;4.30;;;;;;;;;;5069282;28;20583;-56
2021/06/13 04:02:13;;;;;;;5.07;4.60;;;;;;;;;;5070038;28;20602;-55
2021/06/13 04:04:42;;;;;;;6.20;4.73;;;;;;;;;;5065688;28;20556;-56
2021/06/13 04:07:09;;;;;;;6.00;4.90;;;;;;;;;;5069069;28;20598;-55
2021/06/13 04:09:36;;;;;;;5.70;4.80;;;;;;;;;;5069560;28;20600;-56
2021/06/13 04:12:01;;;;;;;7.30;4.90;;;;;;;;;;5069155;28;20680;-56
2021/06/13 04:14:26;;;;;;;6.60;4.80;;;;;;;;;;5075621;28;20667;-56
2021/06/13 04:16:52;;;;;;;6.40;5.10;;;;;;;;;;5076639;28;20181;-56
2021/06/13 04:19:18;;;;;;;11.20;5.47;;;;;;;;;;5069078;28;20592;-56
2021/06/13 04:21:44;;;;;;;5.73;4.90;;;;;;;;;;5070204;28;21181;-56
2021/06/13 04:24:15;;;;;;;6.83;4.83;;;;;;;;;;5066505;28;20575;-56
2021/06/13 04:26:40;;;;;;;6.80;4.80;;;;;;;;;;5077075;28;21191;-56
2021/06/13 04:29:05;;;;;;;7.67;5.00;;;;;;;;;;5068810;28;20599;-56
2021/06/13 04:31:31;;;;;;;5.13;4.72;;;;;;;;;;5068870;28;20177;-56
2021/06/13 04:33:57;;;;;;;6.60;4.60;;;;;;;;;;5070137;28;20196;-56
2021/06/13 04:36:22;;;;;;;8.10;4.83;;;;;;;;;;5069067;28;20176;-56
2021/06/13 04:38:48;;;;;;;8.10;5.20;;;;;;;;;;5068982;28;20964;-56
2021/06/13 04:41:13;;;;;;;6.37;5.20;;;;;;;;;;5069431;28;20229;-56
2021/06/13 04:43:39;;;;;;;5.80;4.57;;;;;;;;;;5069382;28;20185;-57
2021/06/13 04:46:04;;;;;;;5.50;4.93;;;;;;;;;;5068199;28;20183;-56
2021/06/13 04:48:30;;;;;;;5.67;4.53;;;;;;;;;;5065189;28;20175;-56
2021/06/13 04:50:59;;;;;;;7.33;4.80;;;;;;;;;;5064812;28;20180;-56
2021/06/13 04:53:50;;;;;;;6.57;4.40;;;;;;;;;;5056327;28;20208;-56
2021/06/13 04:56:34;;;;;;;5.70;4.77;;;;;;;;;;5067522;28;20649;-56
2021/06/13 04:58:59;;;;;;;6.73;4.80;;;;;;;;;;5067835;28;20604;-56
2021/06/13 05:01:25;;;;;;;7.70;5.23;;;;;;;;;;5068918;28;21047;-56
2021/06/13 05:03:51;;;;;;;6.67;5.07;;;;;;;;;;5067362;28;20203;-56
2021/06/13 05:06:16;;;;;;;10.13;5.03;;;;;;;;;;5068195;28;20677;-57
2021/06/13 05:08:41;;;;;;;6.10;5.27;;;;;;;;;;5068575;28;20183;-56
2021/06/13 05:11:07;;;;;;;8.63;5.50;;;;;;;;;;5068310;28;20642;-57
2021/06/13 05:13:32;;;;;;;7.47;5.00;;;;;;;;;;5062614;28;20205;-57
2021/06/13 05:15:57;;;;;;;7.45;4.82;;;;;;;;;;5067330;28;20731;-57
2021/06/13 05:18:22;;;;;;;5.50;4.37;;;;;;;;;;5069024;28;20246;-57
2021/06/13 05:20:52;;;;;;;5.22;4.72;;;;;;;;;;5067313;28;20177;-58
2021/06/13 05:23:18;;;;;;;7.60;4.97;;;;;;;;;;5066800;28;20182;-57
2021/06/13 05:25:43;;;;;;;9.83;6.00;;;;;;;;;;5079868;28;20603;-57
2021/06/13 05:28:08;;;;;;;8.38;5.35;;;;;;;;;;5089362;28;20170;-56
2021/06/13 05:30:34;;;;;;;6.93;4.88;;;;;;;;;;5085484;28;20189;-57
2021/06/13 05:32:59;;;;;;;8.30;5.03;;;;;;;;;;5068407;28;20176;-57
2021/06/13 05:35:25;;;;;;;7.53;5.40;;;;;;;;;;5068618;28;20261;-57
2021/06/13 05:37:51;;;;;;;5.50;4.63;;;;;;;;;;5067661;28;20215;-57
2021/06/13 05:40:18;;;;;;;8.37;5.33;;;;;;;;;;5068489;28;20613;-56
2021/06/13 05:42:43;;;;;;;4.60;4.20;;;;;;;;;;5065069;28;20604;-57
2021/06/13 05:45:10;;;;;;;7.57;5.03;;;;;;;;;;5064588;28;20660;-57
2021/06/13 05:47:36;;;;;;;7.63;5.03;;;;;;;;;;5060077;28;20214;-57
2021/06/13 05:50:01;;;;;;;7.70;5.00;;;;;;;;;;5051490;28;20949;-57
2021/06/13 05:52:26;;;;;;;10.43;4.93;;;;;;;;;;5059812;28;20169;-57
2021/06/13 05:54:52;;;;;;;7.90;4.40;;;;;;;;;;5060649;28;20206;-57
2021/06/13 05:57:17;;;;;;;4.83;4.17;;;;;;;;;;5063652;28;20187;-57
2021/06/13 05:59:42;;;;;;;6.23;4.50;;;;;;;;;;5062928;28;20179;-55
2021/06/13 06:02:08;;;;;;;12.80;4.70;;;;;;;;;;5060150;28;20529;-55
2021/06/13 06:04:33;;;;;;;7.40;5.17;;;;;;;;;;5056718;28;20388;-55
2021/06/13 06:06:58;;;;;;;5.53;4.40;;;;;;;;;;5060518;28;20189;-55
2021/06/13 06:09:24;;;;;;;8.60;4.87;;;;;;;;;;5058245;28;20770;-54
2021/06/13 06:11:49;;;;;;;4.87;4.03;;;;;;;;;;5058513;28;20225;-55
2021/06/13 06:14:14;;;;;;;10.63;4.27;;;;;;;;;;5059662;28;20212;-55
2021/06/13 06:16:39;;;;;;;5.77;3.93;;;;;;;;;;5057643;28;20240;-55
2021/06/13 06:19:04;;;;;;;8.07;5.07;;;;;;;;;;5061647;28;20171;-55
2021/06/13 06:21:29;;;;;;;6.72;4.18;;;;;;;;;;5063400;28;20713;-55
2021/06/13 06:23:55;;;;;;;6.83;3.97;;;;;;;;;;5062422;28;20179;-55
2021/06/13 06:26:20;;;;;;;6.93;3.63;;;;;;;;;;5057499;28;20202;-55
2021/06/13 06:28:45;;;;;;;6.40;4.27;;;;;;;;;;5058691;28;20904;-55
2021/06/13 06:31:11;;;;;;;7.80;3.57;;;;;;;;;;5060828;28;20186;-55
2021/06/13 06:33:36;;;;;;;7.47;3.37;;;;;;;;;;5062192;28;20286;-55
2021/06/13 06:36:01;;;;;;;8.10;4.07;;;;;;;;;;5061119;28;20177;-55
2021/06/13 06:38:27;;;;;;;4.93;3.67;;;;;;;;;;5058399;28;20183;-56
2021/06/13 06:40:52;;;;;;;6.93;3.60;;;;;;;;;;5059025;28;20179;-55
2021/06/13 06:43:17;;;;;;;6.80;4.27;;;;;;;;;;5062043;28;20335;-55
2021/06/13 06:45:42;;;;;;;4.80;4.33;;;;;;;;;;5062517;28;20267;-56
2021/06/13 06:48:08;;;;;;;6.60;4.00;;;;;;;;;;5064796;28;20233;-56
2021/06/13 06:50:33;;;;;;;6.80;4.00;;;;;;;;;;5067115;28;20261;-56
2021/06/13 06:52:58;;;;;;;6.00;4.37;;;;;;;;;;5068211;28;20629;-56
2021/06/13 06:55:23;;;;;;;5.50;4.10;;;;;;;;;;5070314;28;20213;-56
2021/06/13 06:57:48;;;;;;;4.73;3.53;;;;;;;;;;5071196;28;20637;-55
2021/06/13 07:00:15;;;;;;;4.87;3.90;;;;;;;;;;5071379;28;20253;-57
2021/06/13 07:02:40;;;;;;;5.83;4.10;;;;;;;;;;5070847;28;20178;-56
2021/06/13 07:05:05;;;;;;;6.53;4.10;;;;;;;;;;5068748;28;20611;-56
2021/06/13 07:07:31;;;;;;;6.43;3.97;;;;;;;;;;5070510;28;21035;-56
2021/06/13 07:09:56;;;;;;;4.90;3.73;;;;;;;;;;5071124;28;20173;-55
2021/06/13 07:12:21;;;;;;;5.85;3.15;;;;;;;;;;5066533;28;20230;-56
2021/06/13 07:14:46;;;;;;;4.30;3.03;;;;;;;;;;5069721;28;20307;-57
2021/06/13 07:17:11;;;;;;;6.93;4.30;;;;;;;;;;5065763;28;20540;-56
2021/06/13 07:19:37;;;;;;;8.95;3.88;;;;;;;;;;5068382;28;20186;-56
2021/06/13 07:22:02;;;;;;;7.07;3.60;;;;;;;;;;5070480;28;20605;-54
2021/06/13 07:24:27;;;;;;;7.63;4.33;;;;;;;;;;5069092;28;20181;-54
2021/06/13 07:26:52;;;;;;;7.80;4.20;;;;;;;;;;5067225;28;20239;-56
2021/06/13 07:29:18;;;;;;;6.27;4.10;;;;;;;;;;5069769;28;20274;-55
2021/06/13 07:31:45;;;;;;;7.60;3.90;;;;;;;;;;5070370;28;20264;-55
2021/06/13 07:34:10;;;;;;;5.27;4.30;;;;;;;;;;5070066;28;20217;-56
2021/06/13 07:36:36;;;;;;;6.40;4.13;;;;;;;;;;5068923;28;20609;-56
2021/06/13 07:39:01;;;;;;;7.53;4.70;;;;;;;;;;5065419;28;20177;-58
2021/06/13 07:41:26;;;;;;;6.20;4.57;;;;;;;;;;5068850;28;20682;-58
2021/06/13 07:43:51;;;;;;;6.07;4.15;;;;;;;;;;5066228;28;20225;-58
2021/06/13 07:46:17;;;;;;;10.50;4.90;;;;;;;;;;5065322;28;20227;-58
2021/06/13 07:48:42;;;;;;;7.97;4.10;;;;;;;;;;5062363;28;20596;-58
2021/06/13 07:51:09;;;;;;;4.97;4.00;;;;;;;;;;5063676;28;20218;-59
2021/06/13 07:53:34;;;;;;;7.13;4.50;;;;;;;;;;5062090;28;20244;-58
2021/06/13 07:55:59;;;;;;;7.57;4.30;;;;;;;;;;5057518;28;20640;-58
2021/06/13 07:58:25;;;;;;;5.93;4.00;;;;;;;;;;5051562;28;20187;-58
2021/06/13 08:00:50;;;;;;;8.07;4.30;;;;;;;;;;5063009;28;20256;-59
2021/06/13 08:03:15;;;;;;;7.00;4.40;;;;;;;;;;5065802;28;20833;-58
2021/06/13 08:05:42;;;;;;;5.47;4.38;;;;;;;;;;5064630;28;20951;-58
2021/06/13 08:08:08;;;;;;;5.60;4.03;;;;;;;;;;5063948;28;20230;-59
2021/06/13 08:10:33;;;;;;;5.30;4.10;;;;;;;;;;5063984;28;20656;-59
2021/06/13 08:12:59;;;;;;;9.70;3.73;;;;;;;;;;5059989;28;20625;-59
2021/06/13 08:15:24;;;;;;;6.50;3.83;;;;;;;;;;5063925;28;20604;-59
2021/06/13 08:17:50;;;;;;;4.43;3.40;;;;;;;;;;5063546;28;20167;-58
2021/06/13 08:20:15;;;;;;;4.07;3.63;;;;;;;;;;5065798;28;20168;-59
2021/06/13 08:22:41;;;;;;;4.80;3.70;;;;;;;;;;5065657;28;20175;-58
2021/06/13 08:25:06;;;;;;;5.97;3.87;;;;;;;;;;5060046;28;20207;-59
2021/06/13 08:27:32;;;;;;;7.30;4.30;;;;;;;;;;5059004;28;20254;-58
2021/06/13 08:29:58;;;;;;;8.30;4.73;;;;;;;;;;5060211;28;20310;-58
2021/06/13 08:32:24;;;;;;;7.60;4.00;;;;;;;;;;5055191;28;20180;-58
2021/06/13 08:34:49;;;;;;;5.07;3.50;;;;;;;;;;5063438;28;20642;-59
2021/06/13 08:37:14;;;;;;;5.20;3.60;;;;;;;;;;5061179;28;20223;-59
2021/06/13 08:39:39;;;;;;;5.80;3.80;;;;;;;;;;5060156;28;20288;-58
2021/06/13 08:42:04;;;;;;;4.83;3.73;;;;;;;;;;5055319;28;20188;-58
2021/06/13 08:44:30;;;;;;;6.67;4.03;;;;;;;;;;5064212;28;20560;-58
2021/06/13 08:46:56;;;;;;;10.33;4.40;;;;;;;;;;5060880;28;20341;-58
2021/06/13 08:49:22;;;;;;;7.03;4.20;;;;;;;;;;5061262;28;20182;-58
2021/06/13 08:51:47;;;;;;;8.30;5.13;;;;;;;;;;5062919;28;20658;-58
2021/06/13 08:54:12;;;;;;;4.87;4.40;;;;;;;;;;5064658;28;20711;-58
2021/06/13 08:56:38;;;;;;;5.77;4.67;;;;;;;;;;5061615;28;20179;-57
2021/06/13 08:59:03;;;;;;;6.13;4.30;;;;;;;;;;5057354;28;20170;-58
2021/06/13 09:01:28;;;;;;;5.27;4.50;;;;;;;;;;5059082;28;20211;-57
2021/06/13 09:03:53;;;;;;;6.18;4.18;;;;;;;;;;5059320;28;20206;-58
2021/06/13 09:06:19;;;;;;;7.47;4.32;;;;;;;;;;5059723;28;20193;-59
2021/06/13 09:08:46;;;;;;;5.03;4.07;;;;;;;;;;5061463;28;20877;-58
2021/06/13 09:11:31;;;;;;;8.60;4.20;;;;;;;;;;5064239;28;20279;-58
2021/06/13 09:14:10;;;;;;;5.43;4.27;;;;;;;;;;5062778;28;20641;-58
2021/06/13 09:16:38;;;;;;;5.10;4.10;;;;;;;;;;5060223;28;20665;-60
2021/06/13 09:19:03;;;;;;;4.87;3.50;;;;;;;;;;5059494;28;20605;-58
2021/06/13 09:21:30;;;;;;;4.88;3.92;;;;;;;;;;5058429;28;20696;-58
2021/06/13 09:23:56;;;;;;;6.47;4.07;;;;;;;;;;5062481;28;20727;-58
2021/06/13 09:26:25;;;;;;;6.00;4.17;;;;;;;;;;5063944;28;20682;-59
2021/06/13 09:28:50;;;;;;;6.40;3.77;;;;;;;;;;5060217;28;20620;-58
2021/06/13 09:31:17;;;;;;;5.70;3.93;;;;;;;;;;5058175;28;20710;-59
2021/06/13 09:33:43;;;;;;;5.53;4.17;;;;;;;;;;5060379;28;20200;-58
2021/06/13 09:36:09;;;;;;;4.87;3.93;;;;;;;;;;5061000;28;20646;-58
2021/06/13 09:38:36;;;;;;;4.90;3.97;;;;;;;;;;5061498;28;20709;-58
2021/06/13 09:41:04;;;;;;;4.80;3.73;;;;;;;;;;5061971;28;20593;-58
2021/06/13 09:43:31;;;;;;;5.47;4.00;;;;;;;;;;5063793;28;20624;-58
2021/06/13 09:45:58;;;;;;;8.00;3.80;;;;;;;;;;5058133;28;21484;-58
2021/06/13 09:48:23;;;;;;;5.80;4.07;;;;;;;;;;5058699;28;20629;-58
2021/06/13 09:50:56;;;;;;;6.90;3.80;;;;;;;;;;5059581;28;20620;-58
2021/06/13 09:53:23;;;;;;;5.70;4.13;;;;;;;;;;5063522;28;20198;-57
2021/06/13 09:56:00;;;;;;;8.50;4.00;;;;;;;;;;5060824;28;20589;-58
2021/06/13 09:58:25;;;;;;;4.50;4.10;;;;;;;;;;5064198;28;20599;-59
2021/06/13 10:00:50;;;;;;;6.57;3.92;;;;;;;;;;5060023;28;20712;-58
2021/06/13 10:03:25;;;;;;;5.17;4.00;;;;;;;;;;5060069;28;20283;-58
2021/06/13 10:05:53;;;;;;;5.67;3.97;;;;;;;;;;5056008;28;20186;-57
2021/06/13 10:08:18;;;;;;;8.50;4.13;;;;;;;;;;5062500;28;20998;-57
2021/06/13 10:10:43;;;;;;;5.53;3.93;;;;;;;;;;5066332;28;20644;-60
2021/06/13 10:13:09;;;;;;;4.63;3.80;;;;;;;;;;5064433;28;20181;-58
2021/06/13 10:15:37;;;;;;;6.85;4.80;;;;;;;;;;5080533;28;20178;-57
2021/06/13 10:18:11;;;;;;;3.60;3.30;;;;;;;;;;5081268;28;20168;-58
2021/06/13 10:20:37;;;;;;;7.07;4.13;;;;;;;;;;5064722;28;20595;-57
2021/06/13 10:23:04;;;;;;;4.80;3.60;;;;;;;;;;5062343;28;20650;-58
2021/06/13 10:25:29;;;;;;;6.43;4.30;;;;;;;;;;5056910;28;20174;-58
2021/06/13 10:27:55;;;;;;;6.03;4.80;;;;;;;;;;5057263;28;20599;-58
2021/06/13 10:30:20;;;;;;;5.77;3.97;;;;;;;;;;5061349;28;20234;-58
2021/06/13 10:32:45;;;;;;;5.53;3.83;;;;;;;;;;5062277;28;20169;-58
2021/06/13 10:35:11;;;;;;;4.57;3.70;;;;;;;;;;5060944;28;20200;-58
2021/06/13 10:37:36;;;;;;;4.47;3.90;;;;;;;;;;5058974;28;20666;-58
2021/06/13 10:40:02;;;;;;;5.60;3.63;;;;;;;;;;5061067;28;20168;-58
2021/06/13 10:42:28;;;;;;;8.90;4.40;;;;;;;;;;5062655;28;20190;-58
2021/06/13 10:44:56;;;;;;;5.30;3.77;;;;;;;;;;5062626;28;20699;-58
2021/06/13 10:47:22;;;;;;;5.90;3.83;;;;;;;;;;5060791;28;20182;-58
2021/06/13 10:49:49;;;;;;;4.13;3.57;;;;;;;;;;5058028;28;20976;-58
2021/06/13 10:52:15;;;;;;;5.27;3.63;;;;;;;;;;5057014;28;21395;-58
2021/06/13 10:54:49;;;;;;;4.60;4.20;;;;;;;;;;5060801;28;20651;-58
2021/06/13 10:57:14;;;;;;;8.70;3.73;;;;;;;;;;5062826;28;21113;-58
2021/06/13 10:59:41;;;;;;;5.82;3.88;;;;;;;;;;5062822;28;21163;-58
2021/06/13 11:02:13;;;;;;;10.00;4.60;;;;;;;;;;5056563;28;20566;-57
2021/06/13 11:04:43;;;;;;;5.53;4.70;;;;;;;;;;5042463;28;20619;-58
2021/06/13 11:07:08;;;;;;;3.83;3.40;;;;;;;;;;5058738;28;20600;-58
2021/06/13 11:09:54;;;;;;;6.97;3.60;;;;;;;;;;5058608;28;20604;-58
2021/06/13 11:12:39;;;;;;;5.57;3.60;;;;;;;;;;5062515;28;20680;-58
2021/06/13 11:15:04;;;;;;;8.00;3.93;;;;;;;;;;5052345;28;21022;-58
2021/06/13 11:17:48;;;;;;;4.53;3.60;;;;;;;;;;5056972;28;20724;-58
2021/06/13 11:23:08;;;;;;;6.57;3.67;;;;;;;;;;5058808;28;20601;-58
2021/06/13 11:25:36;;;;;;;5.93;3.90;;;;;;;;;;5062932;28;20725;-58
2021/06/13 11:28:11;;;;;;;5.17;3.50;;;;;;;;;;5054968;28;20711;-58
2021/06/13 11:30:40;;;;;;;5.73;3.80;;;;;;;;;;5052984;28;20631;-58
2021/06/13 11:33:05;;;;;;;7.37;3.63;;;;;;;;;;5056009;28;20707;-58
2021/06/13 11:35:32;;;;;;;9.63;4.37;;;;;;;;;;5065404;28;20605;-58
2021/06/13 11:38:09;;;;;;;12.17;5.03;;;;;;;;;;5042488;28;20637;-59
2021/06/13 11:40:48;;;;;;;6.20;3.70;;;;;;;;;;5062821;28;20594;-58
2021/06/13 11:43:14;;;;;;;6.83;4.07;;;;;;;;;;5070262;28;20650;-58
2021/06/13 11:46:06;;;;;;;6.70;4.00;;;;;;;;;;5063375;28;20688;-58
2021/06/13 11:48:32;;;;;;;7.70;4.50;;;;;;;;;;5066122;28;20605;-58
2021/06/13 11:51:00;;;;;;;5.23;3.83;;;;;;;;;;5067729;28;20620;-59
2021/06/13 11:53:44;;;;;;;4.60;3.67;;;;;;;;;;5066164;28;20752;-58
2021/06/13 11:56:12;;;;;;;4.63;3.80;;;;;;;;;;5059931;28;20761;-58
2021/06/13 11:58:38;;;;;;;4.87;3.60;;;;;;;;;;5064463;28;20977;-58
2021/06/13 12:01:03;;;;;;;7.53;4.70;;;;;;;;;;5064474;28;20614;-59
2021/06/13 12:03:29;;;;;;;4.00;3.20;;;;;;;;;;5065861;28;20261;-58
2021/06/13 12:06:00;;;;;;;5.73;4.10;;;;;;;;;;5060753;28;20287;-58
2021/06/13 12:08:25;;;;;;;5.20;3.37;;;;;;;;;;5066375;28;20176;-58
2021/06/13 12:10:50;;;;;;;6.33;3.90;;;;;;;;;;5065865;28;20661;-58
2021/06/13 12:13:16;;;;;;;4.50;3.50;;;;;;;;;;5066178;28;20188;-58
2021/06/13 12:15:41;;;;;;;7.03;3.67;;;;;;;;;;5064826;28;20181;-58
2021/06/13 12:18:14;;;;;;;3.93;3.50;;;;;;;;;;5065364;28;20201;-58
2021/06/13 12:20:39;;;;;;;5.03;3.73;;;;;;;;;;5065897;28;20240;-58
2021/06/13 12:23:07;;;;;;;5.43;3.70;;;;;;;;;;5066335;28;21436;-58
2021/06/13 12:28:16;;;;;;;4.57;3.10;;;;;;;;;;5066663;28;20579;-58
2021/06/13 12:30:43;;;;;;;4.40;3.47;;;;;;;;;;5054230;28;20600;-58
2021/06/13 12:33:13;;;;;;;7.63;4.30;;;;;;;;;;5063791;28;20220;-59
2021/06/13 12:35:39;;;;;;;5.90;3.40;;;;;;;;;;5058652;28;20616;-58
2021/06/13 12:38:06;;;;;;;5.63;3.63;;;;;;;;;;5063747;28;20602;-58
2021/06/13 12:40:42;;;;;;;4.97;3.63;;;;;;;;;;5074336;28;21153;-58
2021/06/13 12:43:07;;;;;;;4.30;3.70;;;;;;;;;;5067166;28;20599;-58
2021/06/13 12:45:33;;;;;;;4.93;3.83;;;;;;;;;;5066126;28;20612;-59
2021/06/13 12:47:59;;;;;;;4.73;4.10;;;;;;;;;;5063135;28;20272;-58
2021/06/13 12:50:33;;;;;;;6.97;3.80;;;;;;;;;;5061323;28;20181;-57
2021/06/13 12:52:59;;;;;;;6.83;3.90;;;;;;;;;;5059888;28;20695;-58
2021/06/13 12:55:30;;;;;;;6.53;4.40;;;;;;;;;;5057263;28;21036;-58
2021/06/13 12:57:55;;;;;;;6.57;3.83;;;;;;;;;;5057411;28;20187;-58
2021/06/13 13:00:21;;;;;;;5.17;4.00;;;;;;;;;;5058657;28;20965;-58
2021/06/13 13:02:46;;;;;;;4.47;3.73;;;;;;;;;;5059369;28;20173;-58
2021/06/13 13:05:16;;;;;;;5.90;4.10;;;;;;;;;;5056062;28;20590;-58
2021/06/13 13:07:42;;;;;;;5.83;3.60;;;;;;;;;;5056967;28;20212;-58
2021/06/13 13:10:21;;;;;;;7.13;3.93;;;;;;;;;;5057251;28;21320;-60
2021/06/13 13:12:53;;;;;;;6.80;4.07;;;;;;;;;;5061110;28;20601;-58
